I Maria — V3YI3 — position and weather

sailwx.info

Track history (hours):
 
Tides and Currents Weather Stations Pressure Air Temp Water Temp Dewpoint Dewpoint Depression Visibility Wind Speed Wind Dir Waves Ship Positions

I Maria

Last reported at 2018-Jun-09 10:57 UTC. Time now 2018-Jun-21 01:01 UTC.
Position N 37°29' E 025°55'.
Warning: this ship's position is 11 days out of date.

Length 180 m; draft 9.9 m.

Type: Cargo ship. MMSI: 312175000.

Date/timePositionNaut miles runAvg speedWind from/ knotsBaromVisibWave heightAir tempDewpointWater temp
2018-Jun-09 10:57N 37°29' E 025°55'510.2
2018-Jun-09 10:30N 37°33' E 025°53'14810.0
2018-Jun-08 19:38N 40°01' E 026°03'157 9.5
2018-Jun-08 03:11N 41°12' E 029°07'2 9.8
2018-Jun-08 03:00N 41°14' E 029°08'9 0.6
2018-Jun-07 12:36N 41°23' E 029°05'0 0.4
2018-Jun-07 12:25N 41°23' E 029°05'2 0.1
2018-Jun-07 00:20N 41°24' E 029°05'3 7.9
2018-Jun-06 23:54N 41°26' E 029°08'3 8.8
2018-Jun-06 23:30N 41°29' E 029°11'7 9.5
2018-Jun-06 22:49N 41°35' E 029°14'3 9.9
2018-Jun-06 22:30N 41°38' E 029°16'510.3
2018-Jun-06 22:00N 41°43' E 029°18'610.6
2018-Jun-06 21:27N 41°48' E 029°20'510.6
2018-Jun-06 21:00N 41°53' E 029°22'510.6
2018-Jun-06 20:30N 41°58' E 029°25'510.6
2018-Jun-06 20:00N 42°03' E 029°27'510.5
2018-Jun-06 19:30N 42°08' E 029°29'710.5
2018-Jun-06 18:53N 42°14' E 029°32'410.7
2018-Jun-06 18:30N 42°18' E 029°33'510.7
2018-Jun-06 18:00N 42°23' E 029°36'510.6
2018-Jun-06 17:30N 42°28' E 029°38'510.6
2018-Jun-06 17:00N 42°33' E 029°40'510.6
2018-Jun-06 16:30N 42°38' E 029°43'610.5
2018-Jun-06 15:59N 42°43' E 029°45'510.4
2018-Jun-06 15:30N 42°48' E 029°47'910.6
2018-Jun-06 14:37N 42°57' E 029°51'110.6
2018-Jun-06 14:30N 42°58' E 029°52'510.5
2018-Jun-06 13:59N 43°03' E 029°54'910.6
2018-Jun-06 13:09N 43°12' E 029°57'310.8
2018-Jun-06 12:55N 43°14' E 029°58'410.9
2018-Jun-06 12:30N 43°18' E 030°00'610.9
2018-Jun-06 11:58N 43°24' E 030°03'510.9
2018-Jun-06 11:30N 43°29' E 030°05'610.7
2018-Jun-06 10:58N 43°34' E 030°08'510.9
2018-Jun-06 10:30N 43°39' E 030°10'511.0
2018-Jun-06 10:00N 43°44' E 030°12'511.0
2018-Jun-06 09:30N 43°49' E 030°15'510.8
2018-Jun-06 09:00N 43°54' E 030°17'510.8
2018-Jun-06 08:30N 43°60' E 030°19'510.6
2018-Jun-06 08:00N 44°05' E 030°22'510.4
2018-Jun-06 07:30N 44°09' E 030°24'510.3
2018-Jun-06 07:00N 44°14' E 030°26'510.4
2018-Jun-06 06:30N 44°19' E 030°28'510.5
2018-Jun-06 06:00N 44°25' E 030°30'510.5
2018-Jun-06 05:30N 44°30' E 030°32'510.5
2018-Jun-06 05:00N 44°35' E 030°34'510.5
2018-Jun-06 04:30N 44°40' E 030°35'510.5
2018-Jun-06 04:00N 44°45' E 030°37'510.5
2018-Jun-06 03:29N 44°50' E 030°38'510.5
2018-Jun-06 03:00N 44°55' E 030°40'3910.3
2018-Jun-05 23:13N 45°33' E 030°52'210.1
2018-Jun-05 23:00N 45°36' E 030°53'510.1
2018-Jun-05 22:31N 45°40' E 030°55'510.0
2018-Jun-05 22:01N 45°45' E 030°57'11 9.9
2018-Jun-05 20:52N 45°56' E 031°01'410.1
2018-Jun-05 20:28N 45°60' E 031°03'610.1
2018-Jun-05 19:53N 46°06' E 031°05'4 9.5
2018-Jun-05 19:29N 46°09' E 031°02'610.5
2018-Jun-05 18:55N 46°13' E 030°56'4 9.7
2018-Jun-05 18:30N 46°17' E 030°53'5 9.3
2018-Jun-05 18:00N 46°21' E 030°52'4 8.6
2018-Jun-05 17:30N 46°25' E 030°50'2 4.9
2018-Jun-05 17:00N 46°28' E 030°52'0 0.6
2018-Jun-05 16:22N 46°28' E 030°52'0 0.0
2018-Jun-05 15:58N 46°28' E 030°52'0 0.0
2018-Jun-05 15:28N 46°28' E 030°52'0 0.0
2018-Jun-05 14:59N 46°28' E 030°52'0 0.0
2018-Jun-05 14:27N 46°28' E 030°52'0 0.0
2018-Jun-05 14:00N 46°28' E 030°52'0 0.0
2018-Jun-05 13:29N 46°28' E 030°52'0 0.0
2018-Jun-05 12:57N 46°28' E 030°52'0 0.0
2018-Jun-05 12:17N 46°28' E 030°52'0 0.0
2018-Jun-05 12:00N 46°28' E 030°52'0 0.0
2018-Jun-05 11:30N 46°28' E 030°52'0 0.0
2018-Jun-05 10:57N 46°28' E 030°52'0 0.0
2018-Jun-05 10:30N 46°28' E 030°52'0 0.0
2018-Jun-05 10:00N 46°28' E 030°52'0 0.0
2018-Jun-05 09:28N 46°28' E 030°52'0 0.0
2018-Jun-05 08:58N 46°28' E 030°52'0 0.0
2018-Jun-05 08:24N 46°28' E 030°52'0 0.0
2018-Jun-05 07:54N 46°28' E 030°52'0 0.0
2018-Jun-05 07:29N 46°28' E 030°52'0 0.0
2018-Jun-05 06:55N 46°28' E 030°52'0 0.0
2018-Jun-05 06:26N 46°28' E 030°52'0 0.0
2018-Jun-05 05:55N 46°28' E 030°52'0 0.0
2018-Jun-05 05:28N 46°28' E 030°52'0 0.0
2018-Jun-05 04:59N 46°28' E 030°52'0 0.0
2018-Jun-05 04:29N 46°28' E 030°52'0 0.0
2018-Jun-05 04:00N 46°28' E 030°52'0 0.0
2018-Jun-05 03:27N 46°28' E 030°52'0 0.0
2018-Jun-05 02:54N 46°28' E 030°52'0 0.1
2018-Jun-05 02:30N 46°28' E 030°52'0 0.0
2018-Jun-05 01:55N 46°28' E 030°52'0 0.0
2018-Jun-05 01:22N 46°28' E 030°52'0 0.0
2018-Jun-05 00:58N 46°28' E 030°52'0 0.0
2018-Jun-05 00:25N 46°28' E 030°52'0 0.0
2018-Jun-04 23:58N 46°28' E 030°52'0 0.0
2018-Jun-04 23:26N 46°28' E 030°52'0 0.0
2018-Jun-04 22:57N 46°28' E 030°52'0 0.0
2018-Jun-04 22:27N 46°28' E 030°52'0 0.0
2018-Jun-04 22:00N 46°28' E 030°52'0 0.0
2018-Jun-04 21:29N 46°28' E 030°52'0 0.0
2018-Jun-04 20:58N 46°28' E 030°52'0 0.0
2018-Jun-04 20:30N 46°28' E 030°52'0 0.0
2018-Jun-04 19:58N 46°28' E 030°52'0 0.0
2018-Jun-04 19:30N 46°28' E 030°52'0 0.0
2018-Jun-04 18:59N 46°28' E 030°52'0 0.0
2018-Jun-04 18:29N 46°28' E 030°52'0 0.0
2018-Jun-04 17:55N 46°28' E 030°52'0 0.0
2018-Jun-04 17:23N 46°28' E 030°52'0 0.3
2018-Jun-04 17:00N 46°28' E 030°52'2 4.6
2018-Jun-04 16:30N 46°29' E 030°49'3 5.2
2018-Jun-04 15:59N 46°30' E 030°46'1 1.2
2018-Jun-04 15:24N 46°29' E 030°45'0 0.0
2018-Jun-04 15:00N 46°29' E 030°45'0 0.0
2018-Jun-04 14:28N 46°29' E 030°45'0 0.0
2018-Jun-04 13:52N 46°29' E 030°45'0 0.0
2018-Jun-04 13:28N 46°29' E 030°45'0 0.0
2018-Jun-04 12:57N 46°29' E 030°45'0 0.0
2018-Jun-04 12:26N 46°29' E 030°45'0 0.0
2018-Jun-04 11:57N 46°29' E 030°45'0 0.0
2018-Jun-04 11:15N 46°29' E 030°45'0 0.0
2018-Jun-04 11:00N 46°29' E 030°45'0 0.0
2018-Jun-04 10:24N 46°29' E 030°45'0 0.0
2018-Jun-04 09:52N 46°29' E 030°45'0 0.0
2018-Jun-04 09:23N 46°29' E 030°45'0 0.0
2018-Jun-04 08:59N 46°29' E 030°45'0 0.1
2018-Jun-04 08:25N 46°29' E 030°45'0 0.1
2018-Jun-04 07:57N 46°29' E 030°45'0 0.0
2018-Jun-04 07:22N 46°29' E 030°45'0 0.0
2018-Jun-04 06:57N 46°29' E 030°45'0 0.0
2018-Jun-04 06:28N 46°29' E 030°45'0 0.0
2018-Jun-04 06:00N 46°29' E 030°45'0 0.0
2018-Jun-04 05:30N 46°29' E 030°45'0 0.0
2018-Jun-04 04:37N 46°29' E 030°45'0 0.0
2018-Jun-04 04:19N 46°29' E 030°45'0 0.0
2018-Jun-04 03:57N 46°29' E 030°45'0 0.0
2018-Jun-04 03:29N 46°29' E 030°45'0 0.0
2018-Jun-04 02:51N 46°29' E 030°45'0 0.1
2018-Jun-04 02:30N 46°29' E 030°45'0 0.0
2018-Jun-04 01:55N 46°29' E 030°45'0 0.0
2018-Jun-04 01:30N 46°29' E 030°45'0 0.0
2018-Jun-04 00:49N 46°29' E 030°45'0 0.0
2018-Jun-04 00:30N 46°29' E 030°45'0 0.0
2018-Jun-03 23:53N 46°29' E 030°45'0 0.0
2018-Jun-03 23:22N 46°29' E 030°45'0 0.0
2018-Jun-03 22:50N 46°29' E 030°45'0 0.0
2018-Jun-03 22:25N 46°29' E 030°45'0 0.0
2018-Jun-03 21:49N 46°29' E 030°45'0 0.0
2018-Jun-03 21:29N 46°29' E 030°45'0 0.0
2018-Jun-03 20:53N 46°29' E 030°45'0 0.0
2018-Jun-03 20:30N 46°29' E 030°45'0 0.0
2018-Jun-03 19:55N 46°29' E 030°45'0 0.0
2018-Jun-03 19:30N 46°29' E 030°45'0 0.0
2018-Jun-03 19:00N 46°29' E 030°45'0 0.0
2018-Jun-03 18:29N 46°29' E 030°45'0 0.0
2018-Jun-03 17:57N 46°29' E 030°45'0 0.0
2018-Jun-03 17:29N 46°29' E 030°45'0 0.0
2018-Jun-03 16:57N 46°29' E 030°45'0 0.0
2018-Jun-03 16:25N 46°29' E 030°45'0 0.0
2018-Jun-03 15:58N 46°29' E 030°45'0 0.0
2018-Jun-03 15:26N 46°29' E 030°45'0 0.0
2018-Jun-03 14:59N 46°29' E 030°45'0 0.0
2018-Jun-03 14:26N 46°29' E 030°45'0 0.0
2018-Jun-03 13:59N 46°29' E 030°45'0 0.0
2018-Jun-03 13:29N 46°29' E 030°45'0 0.0
2018-Jun-03 12:59N 46°29' E 030°45'0 0.0
2018-Jun-03 12:14N 46°29' E 030°45'0 0.0
2018-Jun-03 11:57N 46°29' E 030°45'0 0.0
2018-Jun-03 11:20N 46°29' E 030°45'0 0.1
2018-Jun-03 10:59N 46°29' E 030°45'0 0.0
2018-Jun-03 10:26N 46°29' E 030°45'0 0.0
2018-Jun-03 09:47N 46°29' E 030°45'0 0.0
2018-Jun-03 09:29N 46°29' E 030°45'0 0.0
2018-Jun-03 08:57N 46°29' E 030°45'0 0.0
2018-Jun-03 08:28N 46°29' E 030°45'0 0.0
2018-Jun-03 07:58N 46°29' E 030°45'0 0.0
2018-Jun-03 07:21N 46°29' E 030°45'0 0.0
2018-Jun-03 06:57N 46°29' E 030°45'0 0.0
2018-Jun-03 06:30N 46°29' E 030°45'0 0.0
2018-Jun-03 06:00N 46°29' E 030°45'0 0.0
2018-Jun-03 05:27N 46°29' E 030°45'0 0.0
2018-Jun-03 05:00N 46°29' E 030°45'0 0.0
2018-Jun-03 04:29N 46°29' E 030°45'0 0.0
2018-Jun-03 03:59N 46°29' E 030°45'0 0.0
2018-Jun-03 03:25N 46°29' E 030°45'0 0.0
2018-Jun-03 03:00N 46°29' E 030°45'0 0.0
2018-Jun-03 02:21N 46°29' E 030°45'0 0.0
2018-Jun-03 01:59N 46°29' E 030°45'0 0.0
2018-Jun-03 01:22N 46°29' E 030°45'0 0.0
2018-Jun-03 00:59N 46°29' E 030°45'0 0.0
2018-Jun-03 00:28N 46°29' E 030°45'0 0.0
2018-Jun-02 23:46N 46°29' E 030°45'0 0.0
2018-Jun-02 23:30N 46°29' E 030°45'0 0.0
2018-Jun-02 22:26N 46°29' E 030°45'0 0.0
2018-Jun-02 22:00N 46°29' E 030°45'0 0.0
2018-Jun-02 21:30N 46°29' E 030°45'0 0.0
2018-Jun-02 20:56N 46°29' E 030°45'0 0.0
2018-Jun-02 20:27N 46°29' E 030°45'0 0.0
2018-Jun-02 20:00N 46°29' E 030°45'0 0.0
2018-Jun-02 19:30N 46°29' E 030°45'0 0.0
2018-Jun-02 18:53N 46°29' E 030°45'0 0.0
2018-Jun-02 18:27N 46°29' E 030°45'0 0.0
2018-Jun-02 17:58N 46°29' E 030°45'0 0.0
2018-Jun-02 17:23N 46°29' E 030°45'0 0.0
2018-Jun-02 16:58N 46°29' E 030°45'0 0.0
2018-Jun-02 16:27N 46°29' E 030°45'0 0.0
2018-Jun-02 15:54N 46°29' E 030°45'0 0.0
2018-Jun-02 15:22N 46°29' E 030°45'0 0.0
2018-Jun-02 14:53N 46°29' E 030°45'0 0.0
2018-Jun-02 14:25N 46°29' E 030°45'0 0.0
2018-Jun-02 13:53N 46°29' E 030°45'0 0.0
2018-Jun-02 13:29N 46°29' E 030°45'0 0.0
2018-Jun-02 12:54N 46°29' E 030°45'0 0.0
2018-Jun-02 12:25N 46°29' E 030°45'0 0.0
2018-Jun-02 11:56N 46°29' E 030°45'0 0.0
2018-Jun-02 11:28N 46°29' E 030°45'0 0.0
2018-Jun-02 10:56N 46°29' E 030°45'0 0.0
2018-Jun-02 10:29N 46°29' E 030°45'0 0.0
2018-Jun-02 09:59N 46°29' E 030°45'0 0.0
2018-Jun-02 09:28N 46°29' E 030°45'0 0.0
2018-Jun-02 08:59N 46°29' E 030°45'0 0.0
2018-Jun-02 08:28N 46°29' E 030°45'0 0.0
2018-Jun-02 08:00N 46°29' E 030°45'0 0.0
2018-Jun-02 07:30N 46°29' E 030°45'0 0.0
2018-Jun-02 06:49N 46°29' E 030°45'0 0.0
2018-Jun-02 06:28N 46°29' E 030°45'0 0.0
2018-Jun-02 05:55N 46°29' E 030°45'0 0.0
2018-Jun-02 05:30N 46°29' E 030°45'0 0.0
2018-Jun-02 04:58N 46°29' E 030°45'0 0.0
2018-Jun-02 04:22N 46°29' E 030°45'0 0.0
2018-Jun-02 03:58N 46°29' E 030°45'0 0.0
2018-Jun-02 03:25N 46°29' E 030°45'0 0.0
2018-Jun-02 02:58N 46°29' E 030°45'0 0.0
2018-Jun-02 02:30N 46°29' E 030°45'0 0.0
2018-Jun-02 01:59N 46°29' E 030°45'0 0.0
2018-Jun-02 01:29N 46°29' E 030°45'0 0.0
2018-Jun-02 00:59N 46°29' E 030°45'0 0.0
2018-Jun-02 00:30N 46°29' E 030°45'0 0.0
2018-Jun-02 00:00N 46°29' E 030°45'0 0.0
2018-Jun-01 23:29N 46°29' E 030°45'0 0.0
2018-Jun-01 23:00N 46°29' E 030°45'0 0.0
2018-Jun-01 22:25N 46°29' E 030°45'0 0.0
2018-Jun-01 21:58N 46°29' E 030°45'0 0.0
2018-Jun-01 21:30N 46°29' E 030°45'0 0.0
2018-Jun-01 21:00N 46°29' E 030°45'0 0.0
2018-Jun-01 20:27N 46°29' E 030°45'0 0.0
2018-Jun-01 19:59N 46°29' E 030°45'0 0.0
2018-Jun-01 19:28N 46°29' E 030°45'0 0.0
2018-Jun-01 18:54N 46°29' E 030°45'0 0.0
2018-Jun-01 18:28N 46°29' E 030°45'0 0.0
2018-Jun-01 17:58N 46°29' E 030°45'0 0.0
2018-Jun-01 17:26N 46°29' E 030°45'0 0.0
2018-Jun-01 16:58N 46°29' E 030°45'0 0.0
2018-Jun-01 16:28N 46°29' E 030°45'0 0.0
2018-Jun-01 16:00N 46°29' E 030°45'0 0.0
2018-Jun-01 15:26N 46°29' E 030°45'0 0.0
2018-Jun-01 14:57N 46°29' E 030°45'0 0.0
2018-Jun-01 14:30N 46°29' E 030°45'0 0.0
2018-Jun-01 14:00N 46°29' E 030°45'0 0.0
2018-Jun-01 13:24N 46°29' E 030°45'0 0.0
2018-Jun-01 12:58N 46°29' E 030°45'0 0.0
2018-Jun-01 12:24N 46°29' E 030°45'0 0.0
2018-Jun-01 11:57N 46°29' E 030°45'0 0.0
2018-Jun-01 11:28N 46°29' E 030°45'0 0.0
2018-Jun-01 11:00N 46°29' E 030°45'0 0.0
2018-Jun-01 10:28N 46°29' E 030°45'0 0.0
2018-Jun-01 09:55N 46°29' E 030°45'0 0.0
2018-Jun-01 09:12N 46°29' E 030°45'0 0.0
2018-Jun-01 08:57N 46°29' E 030°45'0 0.0
2018-Jun-01 08:26N 46°29' E 030°45'0 0.0
2018-Jun-01 07:58N 46°29' E 030°45'0 0.0
2018-Jun-01 07:30N 46°29' E 030°45'0 0.0
2018-Jun-01 06:50N 46°29' E 030°45'0 0.0
2018-Jun-01 06:27N 46°29' E 030°45'0 0.0
2018-Jun-01 05:56N 46°29' E 030°45'0 0.0
2018-Jun-01 05:29N 46°29' E 030°45'0 0.0
2018-Jun-01 04:53N 46°29' E 030°45'0 0.0
2018-Jun-01 04:23N 46°29' E 030°45'0 0.0
2018-Jun-01 03:59N 46°29' E 030°45'0 0.0
2018-Jun-01 03:27N 46°29' E 030°45'0 0.0
2018-Jun-01 03:00N 46°29' E 030°45'0 0.0
2018-Jun-01 02:14N 46°29' E 030°45'0 0.1
2018-Jun-01 01:54N 46°29' E 030°45'0 0.0
2018-Jun-01 01:30N 46°29' E 030°45'0 0.0
2018-Jun-01 00:59N 46°29' E 030°45'0 0.0
2018-Jun-01 00:28N 46°29' E 030°45'0 0.0
2018-Jun-01 00:00N 46°29' E 030°45'0 0.0
2018-May-31 23:25N 46°29' E 030°45'0 0.0
2018-May-31 22:55N 46°29' E 030°45'0 0.0
2018-May-31 22:30N 46°29' E 030°45'0 0.0
2018-May-31 22:00N 46°29' E 030°45'0 0.0
2018-May-31 21:29N 46°29' E 030°45'0 0.0
2018-May-31 20:56N 46°29' E 030°45'0 0.0
2018-May-31 20:29N 46°29' E 030°45'0 0.0
2018-May-31 19:47N 46°29' E 030°45'0 0.0
2018-May-31 19:26N 46°29' E 030°45'0 0.0
2018-May-31 18:58N 46°29' E 030°45'0 0.0
2018-May-31 18:26N 46°29' E 030°45'0 0.0
2018-May-31 17:59N 46°29' E 030°45'0 0.0
2018-May-31 17:28N 46°29' E 030°45'0 0.0
2018-May-31 16:51N 46°29' E 030°45'0 0.0
2018-May-31 16:30N 46°29' E 030°45'0 0.0
2018-May-31 16:00N 46°29' E 030°45'0 0.0
2018-May-31 15:29N 46°29' E 030°45'0 0.0
2018-May-31 14:50N 46°29' E 030°45'0 0.0
2018-May-31 14:27N 46°29' E 030°45'0 0.0
2018-May-31 14:00N 46°29' E 030°45'0 0.0
2018-May-31 13:30N 46°29' E 030°45'0 0.0
2018-May-31 12:58N 46°29' E 030°45'0 0.0
2018-May-31 12:29N 46°29' E 030°45'0 0.0
2018-May-31 11:56N 46°29' E 030°45'0 0.0
2018-May-31 11:28N 46°29' E 030°45'0 0.0
2018-May-31 10:59N 46°29' E 030°45'0 0.0
2018-May-31 10:25N 46°29' E 030°45'0 0.0
2018-May-31 10:00N 46°29' E 030°45'0 0.0
2018-May-31 09:27N 46°29' E 030°45'0 0.0
2018-May-31 08:59N 46°29' E 030°45'0 0.0
2018-May-31 08:29N 46°29' E 030°45'0 0.0
2018-May-31 07:57N 46°29' E 030°45'0 0.0
2018-May-31 07:28N 46°29' E 030°45'0 0.0
2018-May-31 06:59N 46°29' E 030°45'0 0.0
2018-May-31 06:27N 46°29' E 030°45'0 0.0
2018-May-31 05:56N 46°29' E 030°45'0 0.0
2018-May-31 05:28N 46°29' E 030°45'0 0.0
2018-May-31 04:57N 46°29' E 030°45'0 0.0
2018-May-31 04:24N 46°29' E 030°45'0 0.0
2018-May-31 03:54N 46°29' E 030°45'0 0.0
2018-May-31 03:23N 46°29' E 030°45'0 0.0
2018-May-31 02:50N 46°29' E 030°45'0 0.0
2018-May-31 02:25N 46°29' E 030°45'0 0.0
2018-May-31 01:57N 46°29' E 030°45'0 0.0
2018-May-31 01:24N 46°29' E 030°45'0 0.0
2018-May-31 00:57N 46°29' E 030°45'0 0.0
2018-May-31 00:24N 46°29' E 030°45'0 0.1
2018-May-31 00:00N 46°29' E 030°45'0 0.0
2018-May-30 23:30N 46°29' E 030°45'0 0.0
2018-May-30 22:57N 46°29' E 030°45'0 0.0
2018-May-30 22:17N 46°29' E 030°45'0 0.0
2018-May-30 21:58N 46°29' E 030°45'0 0.0
2018-May-30 21:29N 46°29' E 030°45'0 0.0
2018-May-30 20:56N 46°29' E 030°45'0 0.0
2018-May-30 20:25N 46°29' E 030°45'0 0.0
2018-May-30 19:58N 46°29' E 030°45'0 0.0
2018-May-30 19:30N 46°29' E 030°45'0 0.0
2018-May-30 18:59N 46°29' E 030°45'0 0.0
2018-May-30 18:25N 46°29' E 030°45'0 0.0
2018-May-30 17:51N 46°29' E 030°45'0 0.0
2018-May-30 17:27N 46°29' E 030°45'0 0.0
2018-May-30 16:55N 46°29' E 030°45'0 0.0
2018-May-30 16:24N 46°29' E 030°45'0 0.0
2018-May-30 16:00N 46°29' E 030°45'0 0.0
2018-May-30 15:26N 46°29' E 030°45'0 0.0
2018-May-30 15:00N 46°29' E 030°45'0 0.0
2018-May-30 14:25N 46°29' E 030°45'0 0.0
2018-May-30 13:58N 46°29' E 030°45'0 0.0
2018-May-30 13:27N 46°29' E 030°45'0 0.0
2018-May-30 12:55N 46°29' E 030°45'0 0.0
2018-May-30 12:27N 46°29' E 030°45'0 0.0
2018-May-30 11:54N 46°29' E 030°45'0 0.0
2018-May-30 11:27N 46°29' E 030°45'  
Track history (hours):
 
Tides and Currents Weather Stations Pressure Air Temp Water Temp Dewpoint Dewpoint Depression Visibility Wind Speed Wind Dir Waves Ship Positions

I Maria

Last reported at 2018-Jun-09 10:57 UTC. Time now 2018-Jun-21 01:01 UTC.
Position N 37°29' E 025°55'.
Warning: this ship's position is 11 days out of date.

Length 180 m; draft 9.9 m.

Type: Cargo ship. MMSI: 312175000.

Date/timePositionNaut miles runAvg speedWind from/ knotsBaromVisibWave heightAir tempDewpointWater temp
2018-Jun-09 10:57N 37°29' E 025°55'510.2
2018-Jun-09 10:30N 37°33' E 025°53'14810.0
2018-Jun-08 19:38N 40°01' E 026°03'157 9.5
2018-Jun-08 03:11N 41°12' E 029°07'2 9.8
2018-Jun-08 03:00N 41°14' E 029°08'9 0.6
2018-Jun-07 12:36N 41°23' E 029°05'0 0.4
2018-Jun-07 12:25N 41°23' E 029°05'2 0.1
2018-Jun-07 00:20N 41°24' E 029°05'3 7.9
2018-Jun-06 23:54N 41°26' E 029°08'3 8.8
2018-Jun-06 23:30N 41°29' E 029°11'7 9.5
2018-Jun-06 22:49N 41°35' E 029°14'3 9.9
2018-Jun-06 22:30N 41°38' E 029°16'510.3
2018-Jun-06 22:00N 41°43' E 029°18'610.6
2018-Jun-06 21:27N 41°48' E 029°20'510.6
2018-Jun-06 21:00N 41°53' E 029°22'510.6
2018-Jun-06 20:30N 41°58' E 029°25'510.6
2018-Jun-06 20:00N 42°03' E 029°27'510.5
2018-Jun-06 19:30N 42°08' E 029°29'710.5
2018-Jun-06 18:53N 42°14' E 029°32'410.7
2018-Jun-06 18:30N 42°18' E 029°33'510.7
2018-Jun-06 18:00N 42°23' E 029°36'510.6
2018-Jun-06 17:30N 42°28' E 029°38'510.6
2018-Jun-06 17:00N 42°33' E 029°40'510.6
2018-Jun-06 16:30N 42°38' E 029°43'610.5
2018-Jun-06 15:59N 42°43' E 029°45'510.4
2018-Jun-06 15:30N 42°48' E 029°47'910.6
2018-Jun-06 14:37N 42°57' E 029°51'110.6
2018-Jun-06 14:30N 42°58' E 029°52'510.5
2018-Jun-06 13:59N 43°03' E 029°54'910.6
2018-Jun-06 13:09N 43°12' E 029°57'310.8
2018-Jun-06 12:55N 43°14' E 029°58'410.9
2018-Jun-06 12:30N 43°18' E 030°00'610.9
2018-Jun-06 11:58N 43°24' E 030°03'510.9
2018-Jun-06 11:30N 43°29' E 030°05'610.7
2018-Jun-06 10:58N 43°34' E 030°08'510.9
2018-Jun-06 10:30N 43°39' E 030°10'511.0
2018-Jun-06 10:00N 43°44' E 030°12'511.0
2018-Jun-06 09:30N 43°49' E 030°15'510.8
2018-Jun-06 09:00N 43°54' E 030°17'510.8
2018-Jun-06 08:30N 43°60' E 030°19'510.6
2018-Jun-06 08:00N 44°05' E 030°22'510.4
2018-Jun-06 07:30N 44°09' E 030°24'510.3
2018-Jun-06 07:00N 44°14' E 030°26'510.4
2018-Jun-06 06:30N 44°19' E 030°28'510.5
2018-Jun-06 06:00N 44°25' E 030°30'510.5
2018-Jun-06 05:30N 44°30' E 030°32'510.5
2018-Jun-06 05:00N 44°35' E 030°34'510.5
2018-Jun-06 04:30N 44°40' E 030°35'510.5
2018-Jun-06 04:00N 44°45' E 030°37'510.5
2018-Jun-06 03:29N 44°50' E 030°38'510.5
2018-Jun-06 03:00N 44°55' E 030°40'3910.3
2018-Jun-05 23:13N 45°33' E 030°52'210.1
2018-Jun-05 23:00N 45°36' E 030°53'510.1
2018-Jun-05 22:31N 45°40' E 030°55'510.0
2018-Jun-05 22:01N 45°45' E 030°57'11 9.9
2018-Jun-05 20:52N 45°56' E 031°01'410.1
2018-Jun-05 20:28N 45°60' E 031°03'610.1
2018-Jun-05 19:53N 46°06' E 031°05'4 9.5
2018-Jun-05 19:29N 46°09' E 031°02'610.5
2018-Jun-05 18:55N 46°13' E 030°56'4 9.7
2018-Jun-05 18:30N 46°17' E 030°53'5 9.3
2018-Jun-05 18:00N 46°21' E 030°52'4 8.6
2018-Jun-05 17:30N 46°25' E 030°50'2 4.9
2018-Jun-05 17:00N 46°28' E 030°52'0 0.6
2018-Jun-05 16:22N 46°28' E 030°52'0 0.0
2018-Jun-05 15:58N 46°28' E 030°52'0 0.0
2018-Jun-05 15:28N 46°28' E 030°52'0 0.0
2018-Jun-05 14:59N 46°28' E 030°52'0 0.0
2018-Jun-05 14:27N 46°28' E 030°52'0 0.0
2018-Jun-05 14:00N 46°28' E 030°52'0 0.0
2018-Jun-05 13:29N 46°28' E 030°52'0 0.0
2018-Jun-05 12:57N 46°28' E 030°52'0 0.0
2018-Jun-05 12:17N 46°28' E 030°52'0 0.0
2018-Jun-05 12:00N 46°28' E 030°52'0 0.0
2018-Jun-05 11:30N 46°28' E 030°52'0 0.0
2018-Jun-05 10:57N 46°28' E 030°52'0 0.0
2018-Jun-05 10:30N 46°28' E 030°52'0 0.0
2018-Jun-05 10:00N 46°28' E 030°52'0 0.0
2018-Jun-05 09:28N 46°28' E 030°52'0 0.0
2018-Jun-05 08:58N 46°28' E 030°52'0 0.0
2018-Jun-05 08:24N 46°28' E 030°52'0 0.0
2018-Jun-05 07:54N 46°28' E 030°52'0 0.0
2018-Jun-05 07:29N 46°28' E 030°52'0 0.0
2018-Jun-05 06:55N 46°28' E 030°52'0 0.0
2018-Jun-05 06:26N 46°28' E 030°52'0 0.0
2018-Jun-05 05:55N 46°28' E 030°52'0 0.0
2018-Jun-05 05:28N 46°28' E 030°52'0 0.0
2018-Jun-05 04:59N 46°28' E 030°52'0 0.0
2018-Jun-05 04:29N 46°28' E 030°52'0 0.0
2018-Jun-05 04:00N 46°28' E 030°52'0 0.0
2018-Jun-05 03:27N 46°28' E 030°52'0 0.0
2018-Jun-05 02:54N 46°28' E 030°52'0 0.1
2018-Jun-05 02:30N 46°28' E 030°52'0 0.0
2018-Jun-05 01:55N 46°28' E 030°52'0 0.0
2018-Jun-05 01:22N 46°28' E 030°52'0 0.0
2018-Jun-05 00:58N 46°28' E 030°52'0 0.0
2018-Jun-05 00:25N 46°28' E 030°52'0 0.0
2018-Jun-04 23:58N 46°28' E 030°52'0 0.0
2018-Jun-04 23:26N 46°28' E 030°52'0 0.0
2018-Jun-04 22:57N 46°28' E 030°52'0 0.0
2018-Jun-04 22:27N 46°28' E 030°52'0 0.0
2018-Jun-04 22:00N 46°28' E 030°52'0 0.0
2018-Jun-04 21:29N 46°28' E 030°52'0 0.0
2018-Jun-04 20:58N 46°28' E 030°52'0 0.0
2018-Jun-04 20:30N 46°28' E 030°52'0 0.0
2018-Jun-04 19:58N 46°28' E 030°52'0 0.0
2018-Jun-04 19:30N 46°28' E 030°52'0 0.0
2018-Jun-04 18:59N 46°28' E 030°52'0 0.0
2018-Jun-04 18:29N 46°28' E 030°52'0 0.0
2018-Jun-04 17:55N 46°28' E 030°52'0 0.0
2018-Jun-04 17:23N 46°28' E 030°52'0 0.3
2018-Jun-04 17:00N 46°28' E 030°52'2 4.6
2018-Jun-04 16:30N 46°29' E 030°49'3 5.2
2018-Jun-04 15:59N 46°30' E 030°46'1 1.2
2018-Jun-04 15:24N 46°29' E 030°45'0 0.0
2018-Jun-04 15:00N 46°29' E 030°45'0 0.0
2018-Jun-04 14:28N 46°29' E 030°45'0 0.0
2018-Jun-04 13:52N 46°29' E 030°45'0 0.0
2018-Jun-04 13:28N 46°29' E 030°45'0 0.0
2018-Jun-04 12:57N 46°29' E 030°45'0 0.0
2018-Jun-04 12:26N 46°29' E 030°45'0 0.0
2018-Jun-04 11:57N 46°29' E 030°45'0 0.0
2018-Jun-04 11:15N 46°29' E 030°45'0 0.0
2018-Jun-04 11:00N 46°29' E 030°45'0 0.0
2018-Jun-04 10:24N 46°29' E 030°45'0 0.0
2018-Jun-04 09:52N 46°29' E 030°45'0 0.0
2018-Jun-04 09:23N 46°29' E 030°45'0 0.0
2018-Jun-04 08:59N 46°29' E 030°45'0 0.1
2018-Jun-04 08:25N 46°29' E 030°45'0 0.1
2018-Jun-04 07:57N 46°29' E 030°45'0 0.0
2018-Jun-04 07:22N 46°29' E 030°45'0 0.0
2018-Jun-04 06:57N 46°29' E 030°45'0 0.0
2018-Jun-04 06:28N 46°29' E 030°45'0 0.0
2018-Jun-04 06:00N 46°29' E 030°45'0 0.0
2018-Jun-04 05:30N 46°29' E 030°45'0 0.0
2018-Jun-04 04:37N 46°29' E 030°45'0 0.0
2018-Jun-04 04:19N 46°29' E 030°45'0 0.0
2018-Jun-04 03:57N 46°29' E 030°45'0 0.0
2018-Jun-04 03:29N 46°29' E 030°45'0 0.0
2018-Jun-04 02:51N 46°29' E 030°45'0 0.1
2018-Jun-04 02:30N 46°29' E 030°45'0 0.0
2018-Jun-04 01:55N 46°29' E 030°45'0 0.0
2018-Jun-04 01:30N 46°29' E 030°45'0 0.0
2018-Jun-04 00:49N 46°29' E 030°45'0 0.0
2018-Jun-04 00:30N 46°29' E 030°45'0 0.0
2018-Jun-03 23:53N 46°29' E 030°45'0 0.0
2018-Jun-03 23:22N 46°29' E 030°45'0 0.0
2018-Jun-03 22:50N 46°29' E 030°45'0 0.0
2018-Jun-03 22:25N 46°29' E 030°45'0 0.0
2018-Jun-03 21:49N 46°29' E 030°45'0 0.0
2018-Jun-03 21:29N 46°29' E 030°45'0 0.0
2018-Jun-03 20:53N 46°29' E 030°45'0 0.0
2018-Jun-03 20:30N 46°29' E 030°45'0 0.0
2018-Jun-03 19:55N 46°29' E 030°45'0 0.0
2018-Jun-03 19:30N 46°29' E 030°45'0 0.0
2018-Jun-03 19:00N 46°29' E 030°45'0 0.0
2018-Jun-03 18:29N 46°29' E 030°45'0 0.0
2018-Jun-03 17:57N 46°29' E 030°45'0 0.0
2018-Jun-03 17:29N 46°29' E 030°45'0 0.0
2018-Jun-03 16:57N 46°29' E 030°45'0 0.0
2018-Jun-03 16:25N 46°29' E 030°45'0 0.0
2018-Jun-03 15:58N 46°29' E 030°45'0 0.0
2018-Jun-03 15:26N 46°29' E 030°45'0 0.0
2018-Jun-03 14:59N 46°29' E 030°45'0 0.0
2018-Jun-03 14:26N 46°29' E 030°45'0 0.0
2018-Jun-03 13:59N 46°29' E 030°45'0 0.0
2018-Jun-03 13:29N 46°29' E 030°45'0 0.0
2018-Jun-03 12:59N 46°29' E 030°45'0 0.0
2018-Jun-03 12:14N 46°29' E 030°45'0 0.0
2018-Jun-03 11:57N 46°29' E 030°45'0 0.0
2018-Jun-03 11:20N 46°29' E 030°45'0 0.1
2018-Jun-03 10:59N 46°29' E 030°45'0 0.0
2018-Jun-03 10:26N 46°29' E 030°45'0 0.0
2018-Jun-03 09:47N 46°29' E 030°45'0 0.0
2018-Jun-03 09:29N 46°29' E 030°45'0 0.0
2018-Jun-03 08:57N 46°29' E 030°45'0 0.0
2018-Jun-03 08:28N 46°29' E 030°45'0 0.0
2018-Jun-03 07:58N 46°29' E 030°45'0 0.0
2018-Jun-03 07:21N 46°29' E 030°45'0 0.0
2018-Jun-03 06:57N 46°29' E 030°45'0 0.0
2018-Jun-03 06:30N 46°29' E 030°45'0 0.0
2018-Jun-03 06:00N 46°29' E 030°45'0 0.0
2018-Jun-03 05:27N 46°29' E 030°45'0 0.0
2018-Jun-03 05:00N 46°29' E 030°45'0 0.0
2018-Jun-03 04:29N 46°29' E 030°45'0 0.0
2018-Jun-03 03:59N 46°29' E 030°45'0 0.0
2018-Jun-03 03:25N 46°29' E 030°45'0 0.0
2018-Jun-03 03:00N 46°29' E 030°45'0 0.0
2018-Jun-03 02:21N 46°29' E 030°45'0 0.0
2018-Jun-03 01:59N 46°29' E 030°45'0 0.0
2018-Jun-03 01:22N 46°29' E 030°45'0 0.0
2018-Jun-03 00:59N 46°29' E 030°45'0 0.0
2018-Jun-03 00:28N 46°29' E 030°45'0 0.0
2018-Jun-02 23:46N 46°29' E 030°45'0 0.0
2018-Jun-02 23:30N 46°29' E 030°45'0 0.0
2018-Jun-02 22:26N 46°29' E 030°45'0 0.0
2018-Jun-02 22:00N 46°29' E 030°45'0 0.0
2018-Jun-02 21:30N 46°29' E 030°45'0 0.0
2018-Jun-02 20:56N 46°29' E 030°45'0 0.0
2018-Jun-02 20:27N 46°29' E 030°45'0 0.0
2018-Jun-02 20:00N 46°29' E 030°45'0 0.0
2018-Jun-02 19:30N 46°29' E 030°45'0 0.0
2018-Jun-02 18:53N 46°29' E 030°45'0 0.0
2018-Jun-02 18:27N 46°29' E 030°45'0 0.0
2018-Jun-02 17:58N 46°29' E 030°45'0 0.0
2018-Jun-02 17:23N 46°29' E 030°45'0 0.0
2018-Jun-02 16:58N 46°29' E 030°45'0 0.0
2018-Jun-02 16:27N 46°29' E 030°45'0 0.0
2018-Jun-02 15:54N 46°29' E 030°45'0 0.0
2018-Jun-02 15:22N 46°29' E 030°45'0 0.0
2018-Jun-02 14:53N 46°29' E 030°45'0 0.0
2018-Jun-02 14:25N 46°29' E 030°45'0 0.0
2018-Jun-02 13:53N 46°29' E 030°45'0 0.0
2018-Jun-02 13:29N 46°29' E 030°45'0 0.0
2018-Jun-02 12:54N 46°29' E 030°45'0 0.0
2018-Jun-02 12:25N 46°29' E 030°45'0 0.0
2018-Jun-02 11:56N 46°29' E 030°45'0 0.0
2018-Jun-02 11:28N 46°29' E 030°45'0 0.0
2018-Jun-02 10:56N 46°29' E 030°45'0 0.0
2018-Jun-02 10:29N 46°29' E 030°45'0 0.0
2018-Jun-02 09:59N 46°29' E 030°45'0 0.0
2018-Jun-02 09:28N 46°29' E 030°45'0 0.0
2018-Jun-02 08:59N 46°29' E 030°45'0 0.0
2018-Jun-02 08:28N 46°29' E 030°45'0 0.0
2018-Jun-02 08:00N 46°29' E 030°45'0 0.0
2018-Jun-02 07:30N 46°29' E 030°45'0 0.0
2018-Jun-02 06:49N 46°29' E 030°45'0 0.0
2018-Jun-02 06:28N 46°29' E 030°45'0 0.0
2018-Jun-02 05:55N 46°29' E 030°45'0 0.0
2018-Jun-02 05:30N 46°29' E 030°45'0 0.0
2018-Jun-02 04:58N 46°29' E 030°45'0 0.0
2018-Jun-02 04:22N 46°29' E 030°45'0 0.0
2018-Jun-02 03:58N 46°29' E 030°45'0 0.0
2018-Jun-02 03:25N 46°29' E 030°45'0 0.0
2018-Jun-02 02:58N 46°29' E 030°45'0 0.0
2018-Jun-02 02:30N 46°29' E 030°45'0 0.0
2018-Jun-02 01:59N 46°29' E 030°45'0 0.0
2018-Jun-02 01:29N 46°29' E 030°45'0 0.0
2018-Jun-02 00:59N 46°29' E 030°45'0 0.0
2018-Jun-02 00:30N 46°29' E 030°45'0 0.0
2018-Jun-02 00:00N 46°29' E 030°45'0 0.0
2018-Jun-01 23:29N 46°29' E 030°45'0 0.0
2018-Jun-01 23:00N 46°29' E 030°45'0 0.0
2018-Jun-01 22:25N 46°29' E 030°45'0 0.0
2018-Jun-01 21:58N 46°29' E 030°45'0 0.0
2018-Jun-01 21:30N 46°29' E 030°45'0 0.0
2018-Jun-01 21:00N 46°29' E 030°45'0 0.0
2018-Jun-01 20:27N 46°29' E 030°45'0 0.0
2018-Jun-01 19:59N 46°29' E 030°45'0 0.0
2018-Jun-01 19:28N 46°29' E 030°45'0 0.0
2018-Jun-01 18:54N 46°29' E 030°45'0 0.0
2018-Jun-01 18:28N 46°29' E 030°45'0 0.0
2018-Jun-01 17:58N 46°29' E 030°45'0 0.0
2018-Jun-01 17:26N 46°29' E 030°45'0 0.0
2018-Jun-01 16:58N 46°29' E 030°45'0 0.0
2018-Jun-01 16:28N 46°29' E 030°45'0 0.0
2018-Jun-01 16:00N 46°29' E 030°45'0 0.0
2018-Jun-01 15:26N 46°29' E 030°45'0 0.0
2018-Jun-01 14:57N 46°29' E 030°45'0 0.0
2018-Jun-01 14:30N 46°29' E 030°45'0 0.0
2018-Jun-01 14:00N 46°29' E 030°45'0 0.0
2018-Jun-01 13:24N 46°29' E 030°45'0 0.0
2018-Jun-01 12:58N 46°29' E 030°45'0 0.0
2018-Jun-01 12:24N 46°29' E 030°45'0 0.0
2018-Jun-01 11:57N 46°29' E 030°45'0 0.0
2018-Jun-01 11:28N 46°29' E 030°45'0 0.0
2018-Jun-01 11:00N 46°29' E 030°45'0 0.0
2018-Jun-01 10:28N 46°29' E 030°45'0 0.0
2018-Jun-01 09:55N 46°29' E 030°45'0 0.0
2018-Jun-01 09:12N 46°29' E 030°45'0 0.0
2018-Jun-01 08:57N 46°29' E 030°45'0 0.0
2018-Jun-01 08:26N 46°29' E 030°45'0 0.0
2018-Jun-01 07:58N 46°29' E 030°45'0 0.0
2018-Jun-01 07:30N 46°29' E 030°45'0 0.0
2018-Jun-01 06:50N 46°29' E 030°45'0 0.0
2018-Jun-01 06:27N 46°29' E 030°45'0 0.0
2018-Jun-01 05:56N 46°29' E 030°45'0 0.0
2018-Jun-01 05:29N 46°29' E 030°45'0 0.0
2018-Jun-01 04:53N 46°29' E 030°45'0 0.0
2018-Jun-01 04:23N 46°29' E 030°45'0 0.0
2018-Jun-01 03:59N 46°29' E 030°45'0 0.0
2018-Jun-01 03:27N 46°29' E 030°45'0 0.0
2018-Jun-01 03:00N 46°29' E 030°45'0 0.0
2018-Jun-01 02:14N 46°29' E 030°45'0 0.1
2018-Jun-01 01:54N 46°29' E 030°45'0 0.0
2018-Jun-01 01:30N 46°29' E 030°45'0 0.0
2018-Jun-01 00:59N 46°29' E 030°45'0 0.0
2018-Jun-01 00:28N 46°29' E 030°45'0 0.0
2018-Jun-01 00:00N 46°29' E 030°45'0 0.0
2018-May-31 23:25N 46°29' E 030°45'0 0.0
2018-May-31 22:55N 46°29' E 030°45'0 0.0
2018-May-31 22:30N 46°29' E 030°45'0 0.0
2018-May-31 22:00N 46°29' E 030°45'0 0.0
2018-May-31 21:29N 46°29' E 030°45'0 0.0
2018-May-31 20:56N 46°29' E 030°45'0 0.0
2018-May-31 20:29N 46°29' E 030°45'0 0.0
2018-May-31 19:47N 46°29' E 030°45'0 0.0
2018-May-31 19:26N 46°29' E 030°45'0 0.0
2018-May-31 18:58N 46°29' E 030°45'0 0.0
2018-May-31 18:26N 46°29' E 030°45'0 0.0
2018-May-31 17:59N 46°29' E 030°45'0 0.0
2018-May-31 17:28N 46°29' E 030°45'0 0.0
2018-May-31 16:51N 46°29' E 030°45'0 0.0
2018-May-31 16:30N 46°29' E 030°45'0 0.0
2018-May-31 16:00N 46°29' E 030°45'0 0.0
2018-May-31 15:29N 46°29' E 030°45'0 0.0
2018-May-31 14:50N 46°29' E 030°45'0 0.0
2018-May-31 14:27N 46°29' E 030°45'0 0.0
2018-May-31 14:00N 46°29' E 030°45'0 0.0
2018-May-31 13:30N 46°29' E 030°45'0 0.0
2018-May-31 12:58N 46°29' E 030°45'0 0.0
2018-May-31 12:29N 46°29' E 030°45'0 0.0
2018-May-31 11:56N 46°29' E 030°45'0 0.0
2018-May-31 11:28N 46°29' E 030°45'0 0.0
2018-May-31 10:59N 46°29' E 030°45'0 0.0
2018-May-31 10:25N 46°29' E 030°45'0 0.0
2018-May-31 10:00N 46°29' E 030°45'0 0.0
2018-May-31 09:27N 46°29' E 030°45'0 0.0
2018-May-31 08:59N 46°29' E 030°45'0 0.0
2018-May-31 08:29N 46°29' E 030°45'0 0.0
2018-May-31 07:57N 46°29' E 030°45'0 0.0
2018-May-31 07:28N 46°29' E 030°45'0 0.0
2018-May-31 06:59N 46°29' E 030°45'0 0.0
2018-May-31 06:27N 46°29' E 030°45'0 0.0
2018-May-31 05:56N 46°29' E 030°45'0 0.0
2018-May-31 05:28N 46°29' E 030°45'0 0.0
2018-May-31 04:57N 46°29' E 030°45'0 0.0
2018-May-31 04:24N 46°29' E 030°45'0 0.0
2018-May-31 03:54N 46°29' E 030°45'0 0.0
2018-May-31 03:23N 46°29' E 030°45'0 0.0
2018-May-31 02:50N 46°29' E 030°45'0 0.0
2018-May-31 02:25N 46°29' E 030°45'0 0.0
2018-May-31 01:57N 46°29' E 030°45'0 0.0
2018-May-31 01:24N 46°29' E 030°45'0 0.0
2018-May-31 00:57N 46°29' E 030°45'0 0.0
2018-May-31 00:24N 46°29' E 030°45'0 0.1
2018-May-31 00:00N 46°29' E 030°45'0 0.0
2018-May-30 23:30N 46°29' E 030°45'0 0.0
2018-May-30 22:57N 46°29' E 030°45'0 0.0
2018-May-30 22:17N 46°29' E 030°45'0 0.0
2018-May-30 21:58N 46°29' E 030°45'0 0.0
2018-May-30 21:29N 46°29' E 030°45'0 0.0
2018-May-30 20:56N 46°29' E 030°45'0 0.0
2018-May-30 20:25N 46°29' E 030°45'0 0.0
2018-May-30 19:58N 46°29' E 030°45'0 0.0
2018-May-30 19:30N 46°29' E 030°45'0 0.0
2018-May-30 18:59N 46°29' E 030°45'0 0.0
2018-May-30 18:25N 46°29' E 030°45'0 0.0
2018-May-30 17:51N 46°29' E 030°45'0 0.0
2018-May-30 17:27N 46°29' E 030°45'0 0.0
2018-May-30 16:55N 46°29' E 030°45'0 0.0
2018-May-30 16:24N 46°29' E 030°45'0 0.0
2018-May-30 16:00N 46°29' E 030°45'0 0.0
2018-May-30 15:26N 46°29' E 030°45'0 0.0
2018-May-30 15:00N 46°29' E 030°45'0 0.0
2018-May-30 14:25N 46°29' E 030°45'0 0.0
2018-May-30 13:58N 46°29' E 030°45'0 0.0
2018-May-30 13:27N 46°29' E 030°45'0 0.0
2018-May-30 12:55N 46°29' E 030°45'0 0.0
2018-May-30 12:27N 46°29' E 030°45'0 0.0
2018-May-30 11:54N 46°29' E 030°45'0 0.0
2018-May-30 11:27N 46°29' E 030°45'  

Dump ship's entire track history